sensor_id;sensor_type;location;lat;lon;timestamp;temperature;humidity
27858;DHT22;16852;51.446;6.528;2024-01-15T00:00:46;2.50;99.90
27858;DHT22;16852;51.446;6.528;2024-01-15T00:02:47;2.40;99.90
27858;DHT22;16852;51.446;6.528;2024-01-15T00:04:47;2.50;99.90
27858;DHT22;16852;51.446;6.528;2024-01-15T00:06:49;2.50;99.90
27858;DHT22;16852;51.446;6.528;2024-01-15T00:08:50;2.50;99.90
27858;DHT22;16852;51.446;6.528;2024-01-15T00:10:50;2.50;99.90
27858;DHT22;16852;51.446;6.528;2024-01-15T00:12:51;2.50;99.90
27858;DHT22;16852;51.446;6.528;2024-01-15T00:14:51;2.50;99.90
27858;DHT22;16852;51.446;6.528;2024-01-15T00:16:52;2.50;99.90
27858;DHT22;16852;51.446;6.528;2024-01-15T00:18:55;2.50;99.90
27858;DHT22;16852;51.446;6.528;2024-01-15T00:20:55;2.50;99.90
27858;DHT22;16852;51.446;6.528;2024-01-15T00:22:56;2.50;99.90
27858;DHT22;16852;51.446;6.528;2024-01-15T00:24:57;2.50;99.90
27858;DHT22;16852;51.446;6.528;2024-01-15T00:26:57;2.50;99.90
27858;DHT22;16852;51.446;6.528;2024-01-15T00:28:58;2.50;99.90
27858;DHT22;16852;51.446;6.528;2024-01-15T00:30:59;2.50;99.90
27858;DHT22;16852;51.446;6.528;2024-01-15T00:32:59;2.60;99.90
27858;DHT22;16852;51.446;6.528;2024-01-15T00:35:00;2.60;99.90
27858;DHT22;16852;51.446;6.528;2024-01-15T00:37:00;2.50;99.90
27858;DHT22;16852;51.446;6.528;2024-01-15T00:39:01;2.60;99.90
27858;DHT22;16852;51.446;6.528;2024-01-15T00:41:01;2.60;99.90
27858;DHT22;16852;51.446;6.528;2024-01-15T00:43:03;2.60;99.90
27858;DHT22;16852;51.446;6.528;2024-01-15T00:45:04;2.60;99.90
27858;DHT22;16852;51.446;6.528;2024-01-15T00:47:05;2.60;99.90
27858;DHT22;16852;51.446;6.528;2024-01-15T00:49:06;2.60;99.90
27858;DHT22;16852;51.446;6.528;2024-01-15T00:51:07;2.60;99.90
27858;DHT22;16852;51.446;6.528;2024-01-15T00:53:07;2.60;99.90
27858;DHT22;16852;51.446;6.528;2024-01-15T00:55:08;2.60;99.90
27858;DHT22;16852;51.446;6.528;2024-01-15T00:57:09;2.60;99.90
27858;DHT22;16852;51.446;6.528;2024-01-15T00:59:09;2.60;99.90
27858;DHT22;16852;51.446;6.528;2024-01-15T01:01:10;2.60;99.90
27858;DHT22;16852;51.446;6.528;2024-01-15T01:03:11;2.70;99.90
27858;DHT22;16852;51.446;6.528;2024-01-15T01:05:11;2.70;99.90
27858;DHT22;16852;51.446;6.528;2024-01-15T01:07:12;2.70;99.90
27858;DHT22;16852;51.446;6.528;2024-01-15T01:09:12;2.70;99.90
27858;DHT22;16852;51.446;6.528;2024-01-15T01:11:14;2.70;99.90
27858;DHT22;16852;51.446;6.528;2024-01-15T01:13:15;2.70;99.90
27858;DHT22;16852;51.446;6.528;2024-01-15T01:15:15;2.60;99.90
27858;DHT22;16852;51.446;6.528;2024-01-15T01:17:16;2.70;99.90
27858;DHT22;16852;51.446;6.528;2024-01-15T01:19:16;2.70;99.90
27858;DHT22;16852;51.446;6.528;2024-01-15T01:21:17;2.70;99.90
27858;DHT22;16852;51.446;6.528;2024-01-15T01:23:17;2.70;99.90
27858;DHT22;16852;51.446;6.528;2024-01-15T01:25:18;2.70;99.90
27858;DHT22;16852;51.446;6.528;2024-01-15T01:27:19;2.70;99.90
27858;DHT22;16852;51.446;6.528;2024-01-15T01:29:20;2.70;99.90
27858;DHT22;16852;51.446;6.528;2024-01-15T01:31:20;2.70;99.90
27858;DHT22;16852;51.446;6.528;2024-01-15T01:33:21;2.70;99.90
27858;DHT22;16852;51.446;6.528;2024-01-15T01:35:22;2.70;99.90
27858;DHT22;16852;51.446;6.528;2024-01-15T01:37:22;2.70;99.90
27858;DHT22;16852;51.446;6.528;2024-01-15T01:39:23;2.70;99.90
27858;DHT22;16852;51.446;6.528;2024-01-15T01:41:23;2.70;99.90
27858;DHT22;16852;51.446;6.528;2024-01-15T01:43:24;2.70;99.90
27858;DHT22;16852;51.446;6.528;2024-01-15T01:45:25;2.70;99.90
27858;DHT22;16852;51.446;6.528;2024-01-15T01:47:25;2.70;99.90
27858;DHT22;16852;51.446;6.528;2024-01-15T01:49:28;2.70;99.90
27858;DHT22;16852;51.446;6.528;2024-01-15T01:51:28;2.70;99.90
27858;DHT22;16852;51.446;6.528;2024-01-15T01:53:29;2.70;99.90
27858;DHT22;16852;51.446;6.528;2024-01-15T01:55:31;2.70;99.90
27858;DHT22;16852;51.446;6.528;2024-01-15T01:57:33;2.70;99.90
27858;DHT22;16852;51.446;6.528;2024-01-15T01:59:34;2.70;99.90
27858;DHT22;16852;51.446;6.528;2024-01-15T02:01:36;2.70;99.90
27858;DHT22;16852;51.446;6.528;2024-01-15T02:03:37;2.80;99.90
27858;DHT22;16852;51.446;6.528;2024-01-15T02:05:40;2.70;99.90
27858;DHT22;16852;51.446;6.528;2024-01-15T02:07:41;2.70;99.90
27858;DHT22;16852;51.446;6.528;2024-01-15T02:09:41;2.70;99.90
27858;DHT22;16852;51.446;6.528;2024-01-15T02:11:42;2.70;99.90
27858;DHT22;16852;51.446;6.528;2024-01-15T02:13:43;2.70;99.90
27858;DHT22;16852;51.446;6.528;2024-01-15T02:15:43;2.80;99.90
27858;DHT22;16852;51.446;6.528;2024-01-15T02:18:04;2.80;99.90
27858;DHT22;16852;51.446;6.528;2024-01-15T02:20:06;2.80;99.90
27858;DHT22;16852;51.446;6.528;2024-01-15T02:22:06;2.70;99.90
27858;DHT22;16852;51.446;6.528;2024-01-15T02:24:07;2.70;99.90
27858;DHT22;16852;51.446;6.528;2024-01-15T02:26:08;2.80;99.90
27858;DHT22;16852;51.446;6.528;2024-01-15T02:28:14;2.70;99.90
27858;DHT22;16852;51.446;6.528;2024-01-15T02:30:15;2.80;99.90
27858;DHT22;16852;51.446;6.528;2024-01-15T02:32:16;2.70;99.90
27858;DHT22;16852;51.446;6.528;2024-01-15T02:34:17;2.70;99.90
27858;DHT22;16852;51.446;6.528;2024-01-15T02:36:17;2.70;99.90
27858;DHT22;16852;51.446;6.528;2024-01-15T02:38:18;2.80;99.90
27858;DHT22;16852;51.446;6.528;2024-01-15T02:40:19;2.80;99.90
27858;DHT22;16852;51.446;6.528;2024-01-15T02:42:19;2.70;99.90
27858;DHT22;16852;51.446;6.528;2024-01-15T02:44:20;2.70;99.90
27858;DHT22;16852;51.446;6.528;2024-01-15T02:46:20;2.70;99.90
27858;DHT22;16852;51.446;6.528;2024-01-15T02:48:21;2.70;99.90
27858;DHT22;16852;51.446;6.528;2024-01-15T02:50:22;2.80;99.90
27858;DHT22;16852;51.446;6.528;2024-01-15T02:52:22;2.70;99.90
27858;DHT22;16852;51.446;6.528;2024-01-15T02:54:23;2.80;99.90
27858;DHT22;16852;51.446;6.528;2024-01-15T02:56:23;2.70;99.90
27858;DHT22;16852;51.446;6.528;2024-01-15T02:58:24;2.80;99.90
27858;DHT22;16852;51.446;6.528;2024-01-15T03:00:24;2.80;99.90
27858;DHT22;16852;51.446;6.528;2024-01-15T03:02:25;2.80;99.90
27858;DHT22;16852;51.446;6.528;2024-01-15T03:04:25;2.80;99.90
27858;DHT22;16852;51.446;6.528;2024-01-15T03:06:26;2.70;99.90
27858;DHT22;16852;51.446;6.528;2024-01-15T03:08:26;2.80;99.90
27858;DHT22;16852;51.446;6.528;2024-01-15T03:10:27;2.80;99.90
27858;DHT22;16852;51.446;6.528;2024-01-15T03:12:28;2.80;99.90
27858;DHT22;16852;51.446;6.528;2024-01-15T03:14:28;2.80;99.90
27858;DHT22;16852;51.446;6.528;2024-01-15T03:16:29;2.80;99.90
27858;DHT22;16852;51.446;6.528;2024-01-15T03:18:30;2.80;99.90
27858;DHT22;16852;51.446;6.528;2024-01-15T03:20:30;2.80;99.90
27858;DHT22;16852;51.446;6.528;2024-01-15T03:22:31;2.80;99.90
27858;DHT22;16852;51.446;6.528;2024-01-15T03:24:32;2.80;99.90
27858;DHT22;16852;51.446;6.528;2024-01-15T03:26:32;2.80;99.90
27858;DHT22;16852;51.446;6.528;2024-01-15T03:28:33;2.80;99.90
27858;DHT22;16852;51.446;6.528;2024-01-15T03:30:33;2.80;99.90
27858;DHT22;16852;51.446;6.528;2024-01-15T03:32:34;2.80;99.90
27858;DHT22;16852;51.446;6.528;2024-01-15T03:34:35;2.80;99.90
27858;DHT22;16852;51.446;6.528;2024-01-15T03:36:35;2.80;99.90
27858;DHT22;16852;51.446;6.528;2024-01-15T03:38:40;2.80;99.90
27858;DHT22;16852;51.446;6.528;2024-01-15T03:40:41;2.80;99.90
27858;DHT22;16852;51.446;6.528;2024-01-15T03:42:42;2.70;99.90
27858;DHT22;16852;51.446;6.528;2024-01-15T03:44:43;2.80;99.90
27858;DHT22;16852;51.446;6.528;2024-01-15T03:46:44;2.70;99.90
27858;DHT22;16852;51.446;6.528;2024-01-15T03:48:44;2.70;99.90
27858;DHT22;16852;51.446;6.528;2024-01-15T03:50:45;2.70;99.90
27858;DHT22;16852;51.446;6.528;2024-01-15T03:52:45;2.70;99.90
27858;DHT22;16852;51.446;6.528;2024-01-15T03:54:46;2.70;99.90
27858;DHT22;16852;51.446;6.528;2024-01-15T03:56:47;2.70;99.90
27858;DHT22;16852;51.446;6.528;2024-01-15T03:58:47;2.80;99.90
27858;DHT22;16852;51.446;6.528;2024-01-15T04:00:48;2.80;99.90
27858;DHT22;16852;51.446;6.528;2024-01-15T04:02:48;2.80;99.90
27858;DHT22;16852;51.446;6.528;2024-01-15T04:04:49;2.80;99.90
27858;DHT22;16852;51.446;6.528;2024-01-15T04:06:49;2.80;99.90
27858;DHT22;16852;51.446;6.528;2024-01-15T04:08:50;2.80;99.90
27858;DHT22;16852;51.446;6.528;2024-01-15T04:10:51;2.70;99.90
27858;DHT22;16852;51.446;6.528;2024-01-15T04:12:51;2.80;99.90
27858;DHT22;16852;51.446;6.528;2024-01-15T04:14:52;2.80;99.90
27858;DHT22;16852;51.446;6.528;2024-01-15T04:16:52;2.80;99.90
27858;DHT22;16852;51.446;6.528;2024-01-15T04:18:53;2.70;99.90
27858;DHT22;16852;51.446;6.528;2024-01-15T04:20:53;2.70;99.90
27858;DHT22;16852;51.446;6.528;2024-01-15T04:22:54;2.70;99.90
27858;DHT22;16852;51.446;6.528;2024-01-15T04:24:54;2.70;99.90
27858;DHT22;16852;51.446;6.528;2024-01-15T04:26:55;2.70;99.90
27858;DHT22;16852;51.446;6.528;2024-01-15T04:28:55;2.70;99.90
27858;DHT22;16852;51.446;6.528;2024-01-15T04:30:56;2.70;99.90
27858;DHT22;16852;51.446;6.528;2024-01-15T04:32:56;2.70;99.90
27858;DHT22;16852;51.446;6.528;2024-01-15T04:34:57;2.70;99.90
27858;DHT22;16852;51.446;6.528;2024-01-15T04:36:58;2.70;99.90
27858;DHT22;16852;51.446;6.528;2024-01-15T04:38:58;2.70;99.90
27858;DHT22;16852;51.446;6.528;2024-01-15T04:40:59;2.70;99.90
27858;DHT22;16852;51.446;6.528;2024-01-15T04:42:59;2.70;99.90
27858;DHT22;16852;51.446;6.528;2024-01-15T04:45:00;2.70;99.90
27858;DHT22;16852;51.446;6.528;2024-01-15T04:47:00;2.70;99.90
27858;DHT22;16852;51.446;6.528;2024-01-15T04:49:01;2.70;99.90
27858;DHT22;16852;51.446;6.528;2024-01-15T04:51:05;2.70;99.90
27858;DHT22;16852;51.446;6.528;2024-01-15T04:53:05;2.70;99.90
27858;DHT22;16852;51.446;6.528;2024-01-15T04:55:06;2.70;99.90
27858;DHT22;16852;51.446;6.528;2024-01-15T04:57:07;2.70;99.90
27858;DHT22;16852;51.446;6.528;2024-01-15T04:59:07;2.70;99.90
27858;DHT22;16852;51.446;6.528;2024-01-15T05:01:08;2.70;99.90
27858;DHT22;16852;51.446;6.528;2024-01-15T05:03:09;2.60;99.90
27858;DHT22;16852;51.446;6.528;2024-01-15T05:05:09;2.70;99.90
27858;DHT22;16852;51.446;6.528;2024-01-15T05:07:10;2.70;99.90
27858;DHT22;16852;51.446;6.528;2024-01-15T05:09:10;2.70;99.90
27858;DHT22;16852;51.446;6.528;2024-01-15T05:11:11;2.70;99.90
27858;DHT22;16852;51.446;6.528;2024-01-15T05:13:11;2.70;99.90
27858;DHT22;16852;51.446;6.528;2024-01-15T05:15:12;2.70;99.90
27858;DHT22;16852;51.446;6.528;2024-01-15T05:17:13;2.70;99.90
27858;DHT22;16852;51.446;6.528;2024-01-15T05:19:13;2.70;99.90
27858;DHT22;16852;51.446;6.528;2024-01-15T05:21:14;2.70;99.90
27858;DHT22;16852;51.446;6.528;2024-01-15T05:23:14;2.70;99.90
27858;DHT22;16852;51.446;6.528;2024-01-15T05:25:15;2.70;99.90
27858;DHT22;16852;51.446;6.528;2024-01-15T05:27:15;2.70;99.90
27858;DHT22;16852;51.446;6.528;2024-01-15T05:29:16;2.70;99.90
27858;DHT22;16852;51.446;6.528;2024-01-15T05:31:17;2.80;99.90
27858;DHT22;16852;51.446;6.528;2024-01-15T05:33:17;2.80;99.90
27858;DHT22;16852;51.446;6.528;2024-01-15T05:35:18;2.70;99.90
27858;DHT22;16852;51.446;6.528;2024-01-15T05:37:18;2.80;99.90
27858;DHT22;16852;51.446;6.528;2024-01-15T05:39:19;2.80;99.90
27858;DHT22;16852;51.446;6.528;2024-01-15T05:41:19;2.80;99.90
27858;DHT22;16852;51.446;6.528;2024-01-15T05:43:20;2.80;99.90
27858;DHT22;16852;51.446;6.528;2024-01-15T05:45:21;2.80;99.90
27858;DHT22;16852;51.446;6.528;2024-01-15T05:47:21;2.80;99.90
27858;DHT22;16852;51.446;6.528;2024-01-15T05:49:22;2.80;99.90
27858;DHT22;16852;51.446;6.528;2024-01-15T05:51:22;2.80;99.90
27858;DHT22;16852;51.446;6.528;2024-01-15T05:53:23;2.80;99.90
27858;DHT22;16852;51.446;6.528;2024-01-15T05:55:23;2.80;99.90
27858;DHT22;16852;51.446;6.528;2024-01-15T05:57:24;2.80;99.90
27858;DHT22;16852;51.446;6.528;2024-01-15T05:59:25;2.80;99.90
27858;DHT22;16852;51.446;6.528;2024-01-15T06:01:26;2.80;99.90
27858;DHT22;16852;51.446;6.528;2024-01-15T06:03:26;2.80;99.90
27858;DHT22;16852;51.446;6.528;2024-01-15T06:05:27;2.80;99.90
27858;DHT22;16852;51.446;6.528;2024-01-15T06:07:28;2.80;99.90
27858;DHT22;16852;51.446;6.528;2024-01-15T06:09:28;2.80;99.90
27858;DHT22;16852;51.446;6.528;2024-01-15T06:11:30;2.80;99.90
27858;DHT22;16852;51.446;6.528;2024-01-15T06:13:30;2.80;99.90
27858;DHT22;16852;51.446;6.528;2024-01-15T06:15:31;2.80;99.90
27858;DHT22;16852;51.446;6.528;2024-01-15T06:17:32;2.70;99.90
27858;DHT22;16852;51.446;6.528;2024-01-15T06:19:32;2.80;99.90
27858;DHT22;16852;51.446;6.528;2024-01-15T06:21:33;2.80;99.90
27858;DHT22;16852;51.446;6.528;2024-01-15T06:23:33;2.80;99.90
27858;DHT22;16852;51.446;6.528;2024-01-15T06:25:34;2.80;99.90
27858;DHT22;16852;51.446;6.528;2024-01-15T06:27:34;2.80;99.90
27858;DHT22;16852;51.446;6.528;2024-01-15T06:29:37;2.80;99.90
27858;DHT22;16852;51.446;6.528;2024-01-15T06:31:38;2.80;99.90
27858;DHT22;16852;51.446;6.528;2024-01-15T06:33:38;2.90;99.90
27858;DHT22;16852;51.446;6.528;2024-01-15T06:35:39;2.90;99.90
27858;DHT22;16852;51.446;6.528;2024-01-15T06:37:40;2.80;99.90
27858;DHT22;16852;51.446;6.528;2024-01-15T06:39:40;2.80;99.90
27858;DHT22;16852;51.446;6.528;2024-01-15T06:41:41;2.80;99.90
27858;DHT22;16852;51.446;6.528;2024-01-15T06:43:43;2.80;99.90
27858;DHT22;16852;51.446;6.528;2024-01-15T06:45:44;2.80;99.90
27858;DHT22;16852;51.446;6.528;2024-01-15T06:47:45;2.80;99.90
27858;DHT22;16852;51.446;6.528;2024-01-15T06:49:45;2.80;99.90
27858;DHT22;16852;51.446;6.528;2024-01-15T06:51:46;2.80;99.90
27858;DHT22;16852;51.446;6.528;2024-01-15T06:53:46;2.80;99.90
27858;DHT22;16852;51.446;6.528;2024-01-15T06:55:47;2.80;99.90
27858;DHT22;16852;51.446;6.528;2024-01-15T06:57:49;2.80;99.90
27858;DHT22;16852;51.446;6.528;2024-01-15T06:59:50;2.80;99.90
27858;DHT22;16852;51.446;6.528;2024-01-15T07:01:51;2.80;99.90
27858;DHT22;16852;51.446;6.528;2024-01-15T07:03:51;2.80;99.90
27858;DHT22;16852;51.446;6.528;2024-01-15T07:05:52;2.80;99.90
27858;DHT22;16852;51.446;6.528;2024-01-15T07:07:52;2.80;99.90
27858;DHT22;16852;51.446;6.528;2024-01-15T07:09:53;2.80;99.90
27858;DHT22;16852;51.446;6.528;2024-01-15T07:11:53;2.80;99.90
27858;DHT22;16852;51.446;6.528;2024-01-15T07:13:54;2.80;99.90
27858;DHT22;16852;51.446;6.528;2024-01-15T07:15:55;2.80;99.90
27858;DHT22;16852;51.446;6.528;2024-01-15T07:17:55;2.80;99.90
27858;DHT22;16852;51.446;6.528;2024-01-15T07:19:56;2.80;99.90
27858;DHT22;16852;51.446;6.528;2024-01-15T07:21:56;2.80;99.90
27858;DHT22;16852;51.446;6.528;2024-01-15T07:23:57;2.80;99.90
27858;DHT22;16852;51.446;6.528;2024-01-15T07:25:58;2.80;99.90
27858;DHT22;16852;51.446;6.528;2024-01-15T07:27:58;2.80;99.90
27858;DHT22;16852;51.446;6.528;2024-01-15T07:29:59;2.80;99.90
27858;DHT22;16852;51.446;6.528;2024-01-15T07:32:00;2.90;99.90
27858;DHT22;16852;51.446;6.528;2024-01-15T07:34:00;2.80;99.90
27858;DHT22;16852;51.446;6.528;2024-01-15T07:36:01;2.80;99.90
27858;DHT22;16852;51.446;6.528;2024-01-15T07:38:03;2.80;99.90
27858;DHT22;16852;51.446;6.528;2024-01-15T07:40:04;2.80;99.90
27858;DHT22;16852;51.446;6.528;2024-01-15T07:42:06;2.80;99.90
27858;DHT22;16852;51.446;6.528;2024-01-15T07:44:07;2.80;99.90
27858;DHT22;16852;51.446;6.528;2024-01-15T07:46:08;2.80;99.90
27858;DHT22;16852;51.446;6.528;2024-01-15T07:48:08;2.70;99.90
27858;DHT22;16852;51.446;6.528;2024-01-15T07:50:10;2.70;99.90
27858;DHT22;16852;51.446;6.528;2024-01-15T07:52:11;2.70;99.90
27858;DHT22;16852;51.446;6.528;2024-01-15T07:54:13;2.70;99.90
27858;DHT22;16852;51.446;6.528;2024-01-15T07:56:14;2.70;99.90
27858;DHT22;16852;51.446;6.528;2024-01-15T07:58:14;2.70;99.90
27858;DHT22;16852;51.446;6.528;2024-01-15T08:00:15;2.70;99.90
27858;DHT22;16852;51.446;6.528;2024-01-15T08:02:16;2.60;99.90
27858;DHT22;16852;51.446;6.528;2024-01-15T08:04:16;2.60;99.90
27858;DHT22;16852;51.446;6.528;2024-01-15T08:06:17;2.60;99.90
27858;DHT22;16852;51.446;6.528;2024-01-15T08:08:17;2.60;99.90
27858;DHT22;16852;51.446;6.528;2024-01-15T08:10:19;2.60;99.90
27858;DHT22;16852;51.446;6.528;2024-01-15T08:12:19;2.60;99.90
27858;DHT22;16852;51.446;6.528;2024-01-15T08:14:20;2.60;99.90
27858;DHT22;16852;51.446;6.528;2024-01-15T08:16:20;2.60;99.90
27858;DHT22;16852;51.446;6.528;2024-01-15T08:18:21;2.50;99.90
27858;DHT22;16852;51.446;6.528;2024-01-15T08:20:22;2.50;99.90
27858;DHT22;16852;51.446;6.528;2024-01-15T08:22:22;2.50;99.90
27858;DHT22;16852;51.446;6.528;2024-01-15T08:24:23;2.50;99.90
27858;DHT22;16852;51.446;6.528;2024-01-15T08:26:24;2.50;99.90
27858;DHT22;16852;51.446;6.528;2024-01-15T08:28:24;2.50;99.90
27858;DHT22;16852;51.446;6.528;2024-01-15T08:30:25;2.50;99.90
27858;DHT22;16852;51.446;6.528;2024-01-15T08:32:27;2.50;99.90
27858;DHT22;16852;51.446;6.528;2024-01-15T08:34:28;2.50;99.90
27858;DHT22;16852;51.446;6.528;2024-01-15T08:36:29;2.50;99.90
27858;DHT22;16852;51.446;6.528;2024-01-15T08:38:35;2.50;99.90
27858;DHT22;16852;51.446;6.528;2024-01-15T08:40:36;2.50;99.90
27858;DHT22;16852;51.446;6.528;2024-01-15T08:42:36;2.50;99.90
27858;DHT22;16852;51.446;6.528;2024-01-15T08:44:37;2.50;99.90
27858;DHT22;16852;51.446;6.528;2024-01-15T08:46:39;2.50;99.90
27858;DHT22;16852;51.446;6.528;2024-01-15T08:48:40;2.40;99.90
27858;DHT22;16852;51.446;6.528;2024-01-15T08:50:40;2.40;99.90
27858;DHT22;16852;51.446;6.528;2024-01-15T08:52:41;2.40;99.90
27858;DHT22;16852;51.446;6.528;2024-01-15T08:54:42;2.40;99.90
27858;DHT22;16852;51.446;6.528;2024-01-15T08:56:42;2.40;99.90
27858;DHT22;16852;51.446;6.528;2024-01-15T08:58:43;2.30;99.90
27858;DHT22;16852;51.446;6.528;2024-01-15T09:00:44;2.30;99.90
27858;DHT22;16852;51.446;6.528;2024-01-15T09:02:44;2.30;99.90
27858;DHT22;16852;51.446;6.528;2024-01-15T09:04:45;2.30;99.90
27858;DHT22;16852;51.446;6.528;2024-01-15T09:06:46;2.30;99.90
27858;DHT22;16852;51.446;6.528;2024-01-15T09:08:49;2.30;99.90
27858;DHT22;16852;51.446;6.528;2024-01-15T09:10:50;2.40;99.90
27858;DHT22;16852;51.446;6.528;2024-01-15T09:12:51;2.30;99.90
27858;DHT22;16852;51.446;6.528;2024-01-15T09:14:52;2.30;99.90
27858;DHT22;16852;51.446;6.528;2024-01-15T09:16:54;2.40;99.90
27858;DHT22;16852;51.446;6.528;2024-01-15T09:18:54;2.40;99.90
27858;DHT22;16852;51.446;6.528;2024-01-15T09:20:57;2.40;99.90
27858;DHT22;16852;51.446;6.528;2024-01-15T09:22:58;2.40;99.90
27858;DHT22;16852;51.446;6.528;2024-01-15T09:24:59;2.40;99.90
27858;DHT22;16852;51.446;6.528;2024-01-15T09:26:59;2.40;99.90
27858;DHT22;16852;51.446;6.528;2024-01-15T09:29:00;2.40;99.90
27858;DHT22;16852;51.446;6.528;2024-01-15T09:31:01;2.40;99.90
27858;DHT22;16852;51.446;6.528;2024-01-15T09:33:02;2.40;99.90
27858;DHT22;16852;51.446;6.528;2024-01-15T09:35:02;2.40;99.90
27858;DHT22;16852;51.446;6.528;2024-01-15T09:37:03;2.40;99.90
27858;DHT22;16852;51.446;6.528;2024-01-15T09:39:04;2.40;99.90
27858;DHT22;16852;51.446;6.528;2024-01-15T09:41:06;2.40;99.90
27858;DHT22;16852;51.446;6.528;2024-01-15T09:43:07;2.40;99.90
27858;DHT22;16852;51.446;6.528;2024-01-15T09:45:08;2.40;99.90
27858;DHT22;16852;51.446;6.528;2024-01-15T09:47:10;2.40;99.90
27858;DHT22;16852;51.446;6.528;2024-01-15T09:49:11;2.40;99.90
27858;DHT22;16852;51.446;6.528;2024-01-15T09:51:11;2.50;99.90
27858;DHT22;16852;51.446;6.528;2024-01-15T09:53:15;2.40;99.90
27858;DHT22;16852;51.446;6.528;2024-01-15T09:55:17;2.40;99.90
27858;DHT22;16852;51.446;6.528;2024-01-15T09:57:17;2.50;99.90
27858;DHT22;16852;51.446;6.528;2024-01-15T09:59:18;2.40;99.90
27858;DHT22;16852;51.446;6.528;2024-01-15T10:01:22;2.40;99.90
27858;DHT22;16852;51.446;6.528;2024-01-15T10:03:23;2.40;99.90
27858;DHT22;16852;51.446;6.528;2024-01-15T10:05:24;2.50;99.90
27858;DHT22;16852;51.446;6.528;2024-01-15T10:07:25;2.40;99.90
27858;DHT22;16852;51.446;6.528;2024-01-15T10:09:26;2.40;99.90
27858;DHT22;16852;51.446;6.528;2024-01-15T10:11:27;2.40;99.90
27858;DHT22;16852;51.446;6.528;2024-01-15T10:13:28;2.40;99.90
27858;DHT22;16852;51.446;6.528;2024-01-15T10:15:30;2.50;99.90
27858;DHT22;16852;51.446;6.528;2024-01-15T10:17:37;2.50;99.90
27858;DHT22;16852;51.446;6.528;2024-01-15T10:19:38;2.50;99.90
27858;DHT22;16852;51.446;6.528;2024-01-15T10:21:41;2.50;99.90
27858;DHT22;16852;51.446;6.528;2024-01-15T10:23:42;2.50;99.90
27858;DHT22;16852;51.446;6.528;2024-01-15T10:25:42;2.50;99.90
27858;DHT22;16852;51.446;6.528;2024-01-15T10:27:43;2.50;99.90
27858;DHT22;16852;51.446;6.528;2024-01-15T10:29:44;2.60;99.90
27858;DHT22;16852;51.446;6.528;2024-01-15T10:31:44;2.50;99.90
27858;DHT22;16852;51.446;6.528;2024-01-15T10:33:45;2.50;99.90
27858;DHT22;16852;51.446;6.528;2024-01-15T10:35:46;2.50;99.90
27858;DHT22;16852;51.446;6.528;2024-01-15T10:37:47;2.60;99.90
27858;DHT22;16852;51.446;6.528;2024-01-15T10:39:48;2.60;99.90
27858;DHT22;16852;51.446;6.528;2024-01-15T10:41:51;2.60;99.90
27858;DHT22;16852;51.446;6.528;2024-01-15T10:43:52;2.70;99.90
27858;DHT22;16852;51.446;6.528;2024-01-15T10:45:53;2.70;99.90
27858;DHT22;16852;51.446;6.528;2024-01-15T10:47:54;2.70;99.90
27858;DHT22;16852;51.446;6.528;2024-01-15T10:49:59;2.70;99.90
27858;DHT22;16852;51.446;6.528;2024-01-15T10:52:03;2.70;99.90
27858;DHT22;16852;51.446;6.528;2024-01-15T10:54:05;2.70;99.90
27858;DHT22;16852;51.446;6.528;2024-01-15T10:56:06;2.80;99.90
27858;DHT22;16852;51.446;6.528;2024-01-15T10:58:08;2.80;99.90
27858;DHT22;16852;51.446;6.528;2024-01-15T11:00:09;2.80;99.90
27858;DHT22;16852;51.446;6.528;2024-01-15T11:02:15;2.90;99.90
27858;DHT22;16852;51.446;6.528;2024-01-15T11:04:16;2.90;99.90
27858;DHT22;16852;51.446;6.528;2024-01-15T11:06:17;2.90;99.90
27858;DHT22;16852;51.446;6.528;2024-01-15T11:08:21;3.00;99.90
27858;DHT22;16852;51.446;6.528;2024-01-15T11:10:41;3.00;99.90
27858;DHT22;16852;51.446;6.528;2024-01-15T11:12:42;2.90;99.90
27858;DHT22;16852;51.446;6.528;2024-01-15T11:14:48;3.00;99.90
27858;DHT22;16852;51.446;6.528;2024-01-15T11:16:57;3.00;99.90
27858;DHT22;16852;51.446;6.528;2024-01-15T11:25:46;3.10;99.90
27858;DHT22;16852;51.446;6.528;2024-01-15T11:27:51;3.00;99.90
27858;DHT22;16852;51.446;6.528;2024-01-15T11:30:03;3.00;99.90
27858;DHT22;16852;51.446;6.528;2024-01-15T11:32:08;3.00;99.90
27858;DHT22;16852;51.446;6.528;2024-01-15T11:34:10;3.00;99.90
27858;DHT22;16852;51.446;6.528;2024-01-15T11:36:11;3.00;99.90
27858;DHT22;16852;51.446;6.528;2024-01-15T11:38:11;3.00;99.90
27858;DHT22;16852;51.446;6.528;2024-01-15T11:40:12;3.00;99.90
27858;DHT22;16852;51.446;6.528;2024-01-15T11:42:14;2.90;99.90
27858;DHT22;16852;51.446;6.528;2024-01-15T11:44:14;3.00;99.90
27858;DHT22;16852;51.446;6.528;2024-01-15T11:46:18;3.00;99.90
27858;DHT22;16852;51.446;6.528;2024-01-15T11:48:18;3.00;99.90
27858;DHT22;16852;51.446;6.528;2024-01-15T11:50:21;3.10;99.90
27858;DHT22;16852;51.446;6.528;2024-01-15T11:52:22;3.10;99.90
27858;DHT22;16852;51.446;6.528;2024-01-15T11:54:24;3.10;99.90
27858;DHT22;16852;51.446;6.528;2024-01-15T11:56:26;3.10;99.90
27858;DHT22;16852;51.446;6.528;2024-01-15T11:58:26;3.10;99.90
27858;DHT22;16852;51.446;6.528;2024-01-15T12:00:28;3.10;99.90
27858;DHT22;16852;51.446;6.528;2024-01-15T12:02:29;3.20;99.90
27858;DHT22;16852;51.446;6.528;2024-01-15T12:04:29;3.20;99.90
27858;DHT22;16852;51.446;6.528;2024-01-15T12:06:30;3.20;99.90
27858;DHT22;16852;51.446;6.528;2024-01-15T12:08:30;3.20;99.90
27858;DHT22;16852;51.446;6.528;2024-01-15T12:10:31;3.20;99.90
27858;DHT22;16852;51.446;6.528;2024-01-15T12:12:44;3.20;99.90
27858;DHT22;16852;51.446;6.528;2024-01-15T12:14:47;3.30;99.90
27858;DHT22;16852;51.446;6.528;2024-01-15T12:16:48;3.30;99.90
27858;DHT22;16852;51.446;6.528;2024-01-15T12:18:50;3.30;99.90
27858;DHT22;16852;51.446;6.528;2024-01-15T12:20:54;3.30;99.90
27858;DHT22;16852;51.446;6.528;2024-01-15T12:22:55;3.40;99.90
27858;DHT22;16852;51.446;6.528;2024-01-15T12:24:56;3.40;99.90
27858;DHT22;16852;51.446;6.528;2024-01-15T12:26:58;3.40;99.90
27858;DHT22;16852;51.446;6.528;2024-01-15T12:29:01;3.50;99.90
27858;DHT22;16852;51.446;6.528;2024-01-15T12:31:02;3.50;99.90
27858;DHT22;16852;51.446;6.528;2024-01-15T12:33:06;3.50;99.90
27858;DHT22;16852;51.446;6.528;2024-01-15T12:35:08;3.50;99.90
27858;DHT22;16852;51.446;6.528;2024-01-15T12:37:09;3.50;99.90
27858;DHT22;16852;51.446;6.528;2024-01-15T12:39:12;3.50;99.90
27858;DHT22;16852;51.446;6.528;2024-01-15T12:41:14;3.50;99.90
27858;DHT22;16852;51.446;6.528;2024-01-15T12:43:15;3.50;99.90
27858;DHT22;16852;51.446;6.528;2024-01-15T12:45:16;3.50;99.90
27858;DHT22;16852;51.446;6.528;2024-01-15T12:47:16;3.50;99.90
27858;DHT22;16852;51.446;6.528;2024-01-15T12:49:19;3.50;99.90
27858;DHT22;16852;51.446;6.528;2024-01-15T12:51:24;3.50;99.90
27858;DHT22;16852;51.446;6.528;2024-01-15T12:53:26;3.50;99.90
27858;DHT22;16852;51.446;6.528;2024-01-15T12:55:26;3.50;99.90
27858;DHT22;16852;51.446;6.528;2024-01-15T12:57:27;3.50;99.90
27858;DHT22;16852;51.446;6.528;2024-01-15T12:59:27;3.50;99.90
27858;DHT22;16852;51.446;6.528;2024-01-15T13:01:28;3.50;99.90
27858;DHT22;16852;51.446;6.528;2024-01-15T13:03:29;3.40;99.90